MDLR/LRM METAR and TAF weather

Enter ICAO airport designator
Station Type Date Time Source
MDLR METAR 2019/06/18 03:00 UTC NOAA

MDLR 180300Z 09006KT 9999 FEW016 26/23 Q1018


Station Type Date Time Source
MDLR Decoded METAR 2019/06/18 03:00 UTC NOAA

La Romana International Airport, Dominican Republic (MDLR) 18-25N 068-57W
Jun 17, 2019 - 11:00 PM EDT / 2019.06.18 0300 UTC
Wind: from the E (090 degrees) at 7 MPH (6 KT):0
Visibility: greater than 7 mile(s):0
Sky conditions: mostly clear
Temperature: 78 F (26 C)
Dew Point: 73 F (23 C)
Relative Humidity: 83%
Pressure (altimeter): 30.06 in. Hg (1018 hPa)
ob: MDLR 180300Z 09006KT 9999 FEW016 26/23 Q1018
cycle: 3

Station Type Date Time Source
MDLR TAF 2019/06/18 06:55 UTC NOAA

TAF MDLR 180400Z 1806/1906 00000KT 9999 FEW016 PROB30 1806/1812 8000 -TSRA FEW016CB SCT016 SCT070
BECMG 1800/1802 12012KT

Example: see airport list